Flight Track Log - Related Links

Times and Time Zones

All times are in EDT time to prevent confusion due to time zone crossing. See the CEY501 flight status page for this flight to view local times or setup timezone preferences in your user account.

Time Position Orientation Groundspeed Altitude Reporting Facility
EDT Latitude Longitude Course Direction KTS MPH feet Rate Location/Type
Fri 01:00:00 PM 18.5983 -68.4178 301° West  Level FlightAware Approximate
Fri 01:01:00 PM 18.6263 -68.4693 298° West  Level FlightAware Approximate
Fri 01:02:00 PM 18.6622 -68.5471 293° West  Level FlightAware Approximate
Fri 01:03:00 PM 18.6962 -68.6257 298° West  Level FlightAware Approximate
Fri 01:04:00 PM 18.7345 -68.7022 298° West  Level FlightAware Approximate
Fri 01:05:00 PM 18.7747 -68.7777 300° West  Level FlightAware Approximate
Fri 01:06:00 PM 18.8161 -68.8523 300° West  Level FlightAware Approximate
Fri 01:07:00 PM 18.8546 -68.9288 296° West  Level FlightAware Approximate
Fri 01:08:00 PM 18.8909 -69.0065 296° West  Level FlightAware Approximate
Fri 01:09:00 PM 18.9271 -69.0842 296° West  Level FlightAware Approximate
Fri 01:10:00 PM 18.9641 -69.1615 298° West  Level FlightAware Approximate
Fri 01:11:00 PM 19.0024 -69.2382 298° West  Level FlightAware Approximate
Fri 01:12:00 PM 19.0367 -69.3168 293° West  Level FlightAware Approximate
Fri 01:13:00 PM 19.0687 -69.3967 293° West  Level FlightAware Approximate
Fri 01:13:54 PM 20.4986 -72.3372 299° West 347 399 33,900  Level Miami Center
Fri 01:14:00 PM 19.1055 -69.4740 300° West  Level FlightAware Approximate
Fri 01:14:54 PM 20.5653 -72.4125 313° West 347 399 33,900  Level Miami Center
Fri 01:15:00 PM 19.1465 -69.5491 300° West  Level FlightAware Approximate
Fri 01:15:54 PM 20.6342 -72.4856 315° West 347 399 33,900  Level Miami Center
Fri 01:16:00 PM 19.1866 -69.6248 293° West  Level FlightAware Approximate
Fri 01:16:54 PM 20.7008 -72.5611 313° West 347 399 33,900  Level Miami Center
Fri 01:17:00 PM 19.2187 -69.7046 295° West  Level FlightAware Approximate
Fri 01:17:54 PM 20.7697 -72.6364 314° West 352 405 33,900  Level Miami Center
Fri 01:18:00 PM 19.2536 -69.7831 295° West  Level FlightAware Approximate
Fri 01:18:54 PM 20.8450 -72.7183 315° West 352 405 33,900  Level Miami Center
Fri 01:19:00 PM 19.2893 -69.8613 299° West  Level FlightAware Approximate
Fri 01:19:54 PM 20.9117 -72.7942 313° West 352 405 33,900  Level Miami Center
Fri 01:20:54 PM 20.9803 -72.8675 315° West 352 405 33,900  Level Miami Center
Fri 01:21:54 PM 21.0489 -72.9411 315° West 352 405 33,900  Level Miami Center
Fri 01:22:54 PM 21.1178 -73.0192 313° West 352 405 33,900  Level Miami Center
Fri 01:23:54 PM 21.1842 -73.0908 315° West 352 405 33,900  Level Miami Center
Fri 01:24:54 PM 21.2528 -73.1667 314° West 352 405 33,900  Level Miami Center
Fri 01:25:54 PM 21.3192 -73.2406 314° West 352 405 33,900  Level Miami Center
Fri 01:26:54 PM 21.3922 -73.3189 315° West 357 411 33,900  Level Miami Center
Fri 01:27:54 PM 21.4544 -73.3931 312° West 357 411 33,900  Level Miami Center
Fri 01:28:54 PM 21.5269 -73.4714 315° West 354 407 33,900  Level Miami Center
Fri 01:29:54 PM 21.5933 -73.5436 315° West 354 407 33,900  Level Miami Center
Fri 01:30:54 PM 21.6619 -73.6222 313° West 359 413 33,900  Level Miami Center
Fri 01:31:54 PM 21.7261 -73.6967 313° West 359 413 33,900  Level Miami Center
Fri 01:32:54 PM 21.7964 -73.7733 315° West 359 413 33,900  Level Miami Center
Fri 01:33:54 PM 21.8650 -73.8522 313° West 359 413 33,900  Level Miami Center
Fri 01:34:54 PM 21.9331 -73.9244 315° West 354 407 33,900  Level Miami Center
Fri 01:35:54 PM 21.9972 -74.0058 310° West 354 407 33,900  Level Miami Center
Fri 01:36:54 PM 22.0656 -74.0828 314° West 354 407 33,900  Level Miami Center
Fri 01:37:54 PM 22.1336 -74.1597 314° West 354 407 33,900  Level Miami Center
Fri 01:38:54 PM 22.2039 -74.2369 315° West 359 413 33,900  Level Miami Center
Fri 01:39:54 PM 22.2722 -74.3142 314° West 359 413 33,900  Level Miami Center
Fri 01:40:54 PM 22.3403 -74.3936 313° West 359 413 33,900  Level Miami Center
Fri 01:41:54 PM 22.4106 -74.4708 315° West 359 413 33,900  Level Miami Center
Fri 01:42:54 PM 22.4700 -74.5394 313° West 359 413 33,900  Level Miami Center
Fri 01:43:54 PM 22.5400 -74.6169 314° West 359 413 33,900  Level Miami Center
Fri 01:44:54 PM 22.6081 -74.6967 313° West 359 413 33,900  Level Miami Center
Fri 01:45:54 PM 22.6781 -74.7742 314° West 359 413 33,900  Level Miami Center
Fri 01:46:54 PM 22.7481 -74.8542 314° West 359 413 33,900  Level Miami Center
Fri 01:47:54 PM 22.8139 -74.9322 312° West 359 413 33,900  Level Miami Center
Fri 01:48:54 PM 22.8861 -75.0100 315° West 359 413 33,900  Level Miami Center
Fri 01:49:54 PM 22.9517 -75.0881 312° West 359 413 33,900  Level Miami Center
Fri 01:50:54 PM 23.0217 -75.1661 314° West 359 413 33,900  Level Miami Center
Fri 01:51:54 PM 23.0892 -75.2442 313° West 359 413 33,900  Level Miami Center
Fri 01:52:54 PM 23.1569 -75.3225 313° West 359 413 33,900  Level Miami Center
Fri 01:53:54 PM 23.2247 -75.4008 313° West 359 413 33,900  Level Miami Center
Fri 01:54:54 PM 23.2922 -75.4769 314° West 359 413 33,900  Level Miami Center
Fri 01:55:54 PM 23.3597 -75.5553 313° West 359 413 33,900  Level Miami Center
Fri 01:56:54 PM 23.4253 -75.6317 313° West 354 407 33,900  Level Miami Center
Fri 01:57:54 PM 23.5011 -75.7169 314° West 354 407 33,900  Level Miami Center
Fri 01:58:54 PM 23.5728 -75.7981 314° West 359 413 33,900  Level Miami Center
Fri 01:59:54 PM 23.6358 -75.8767 311° West 359 413 33,900  Level Miami Center
Fri 02:00:54 PM 23.7033 -75.9533 314° West 354 407 33,900  Level Miami Center
Fri 02:01:54 PM 23.7664 -76.0303 312° West 354 407 33,900  Level Miami Center
Fri 02:02:54 PM 23.8317 -76.1069 313° West 354 407 33,900  Level Miami Center
Fri 02:03:54 PM 23.8969 -76.1861 312° West 354 407 33,900  Level Miami Center
Fri 02:04:54 PM 23.9639 -76.2608 314° West 349 402 33,900  Level Miami Center
Fri 02:05:54 PM 24.0292 -76.3400 312° West 349 402 33,900  Level Miami Center
Fri 02:06:54 PM 24.0942 -76.4172 313° West 349 402 33,900  Level Miami Center
Fri 02:07:54 PM 24.1633 -76.4967 314° West 349 402 33,900  Level Miami Center
Fri 02:08:54 PM 24.2303 -76.5764 313° West 349 402 33,900  Level Miami Center
Fri 02:09:54 PM 24.2911 -76.6467 314° West 349 402 33,900  Level Miami Center
Fri 02:10:54 PM 24.3622 -76.7311 313° West 354 407 33,900 -150 Level Miami Center
Fri 02:11:54 PM 24.4272 -76.8108 312° West 349 402 33,600 -650 Descending Miami Center
Fri 02:12:54 PM 24.5025 -76.8908 316° Northwest 355 409 32,600 -800 Descending Miami Center
Fri 02:13:54 PM 24.5858 -76.9594 323° Northwest 366 421 32,000 -500 Descending Miami Center
Fri 02:14:54 PM 24.6717 -77.0236 326° Northwest 377 434 31,600 -500 Descending Miami Center
Fri 02:15:54 PM 24.7550 -77.0900 324° Northwest 377 434 31,000 -550 Descending Miami Center
Fri 02:16:54 PM 24.8406 -77.1519 327° Northwest 372 428 30,500 -500 Descending Miami Center
Fri 02:17:54 PM 24.9261 -77.2164 326° Northwest 372 428 30,000 -300 Descending Miami Center
Fri 02:18:54 PM 25.0117 -77.2783 327° Northwest 372 428 29,900 -50 Descending Miami Center
Fri 02:19:54 PM 25.0931 -77.3453 323° Northwest 372 428 29,900  Level Miami Center
Fri 02:20:54 PM 25.1617 -77.4100 320° Northwest 372 428 29,900  Level Miami Center
Fri 02:21:54 PM 25.2450 -77.4883 320° Northwest 361 415 29,900  Level Miami Center
Fri 02:22:54 PM 25.3136 -77.5600 317° Northwest 349 402 29,900  Level Miami Center
Fri 02:23:54 PM 25.3886 -77.6317 319° Northwest 349 402 29,900  Level Miami Center
Fri 02:24:54 PM 25.4592 -77.7011 318° Northwest 343 395 29,900  Level Miami Center
Fri 02:25:54 PM 25.5236 -77.7639 319° Northwest 343 395 29,900  Level Miami Center
Fri 02:26:54 PM 25.5858 -77.8472 310° West 343 395 29,900  Level Miami Center
Fri 02:27:54 PM 25.6019 -77.9511 280° West 336 387 29,900  Level Miami Center
Fri 02:28:54 PM 25.5844 -78.0478 259° West 318 366 29,900  Level Miami Center
Fri 02:29:54 PM 25.5625 -78.1511 257° West 330 380 29,900 -350 Level Miami Center
Fri 02:30:54 PM 25.5386 -78.2522 255° West 336 387 29,200 -1,100 Descending Miami Center
Fri 02:31:54 PM 25.5064 -78.3578 251° West 351 404 27,700 -1,350 Descending Miami Center
Fri 02:32:54 PM 25.4758 -78.4656 253° West 361 415 26,500 -1,200 Descending Miami Center
Fri 02:33:54 PM 25.4706 -78.5692 267° West 356 410 25,300 -1,250 Descending Miami Center
Fri 02:34:54 PM 25.4903 -78.6706 282° West 341 392 24,000 -1,700 Descending Miami Center
Fri 02:35:54 PM 25.5206 -78.7631 290° West 331 381 21,900 -2,000 Descending Miami Center
Fri 02:36:54 PM 25.5442 -78.8581 285° West 331 381 20,000 -1,650 Descending Miami Center
Fri 02:37:54 PM 25.5719 -78.9644 286° West 325 374 18,600 -1,150 Descending Miami Center
Fri 02:38:54 PM 25.5978 -79.0661 286° West 337 388 17,700 -1,150 Descending Miami Center
Fri 02:39:54 PM 25.6233 -79.1658 286° West 342 394 16,300 -1,550 Descending Miami Center
Fri 02:40:54 PM 25.6197 -79.2625 268° West 332 382 14,600 -1,800 Descending Miami Center
Fri 02:41:54 PM 25.6139 -79.3614 266° West 327 376 12,700 -2,100 Descending Miami Center
Fri 02:42:54 PM 25.6103 -79.4558 268° West 327 376 10,400 -2,200 Descending Miami Center
Fri 02:43:54 PM 25.6128 -79.5433 272° West 315 362 8,300 -1,400 Descending Miami Center
Fri 02:44:54 PM 25.6792 -79.5703 340° North 217 250 7,600 -900 Descending Miami Center
Fri 02:45:54 PM 25.7564 -79.5744 357° North 229 264 6,500 -900 Descending Miami Center
Fri 02:46:54 PM 25.8314 -79.5806 356° North 245 282 5,800 -826 Descending Miami Center
Fri 02:47:43 PM 25.8556 -79.6389 295° West 260 299 5,000 -650 Descending Miami Center
Fri 02:48:54 PM 25.8958 -79.7161 300° West 231 266 4,500 -870 Descending Miami Center
Fri 02:49:54 PM 25.9319 -79.7931 298° West 255 293 3,100 -1,350 Descending Miami Center
Fri 02:50:54 PM 25.9386 -79.8672 276° West 260 299 1,800 -796 Descending Miami Center
Fri 02:51:47 PM 25.9269 -79.9339 259° West 227 261 1,600 -104 Descending Miami Center
Fri 02:52:49 PM 25.9214 -79.9961 264° West 207 238 1,600  Level Miami Center
Fri 02:53:54 PM 25.9219 -80.0656 271° West 218 251 1,600  Level Miami Center
Fri 02:54:51 PM 25.9183 -80.1278 266° West 196 226 1,600 -153 Level Miami Center
Fri 02:55:52 PM 25.9153 -80.1786 266° West 159 183 1,300 -341 Descending Miami Center
Fri 02:56:54 PM 25.9164 -80.2225 272° West 165 190 900 -387 Descending Miami Center
Fri 02:59:00 PM 25.9000 -80.2667 283° West  Level FlightAware Approximate
Fri 03:06:00 PM 25.9074 -80.2782 283° West  Level Estimated

Login

Don't have an account? Register now (free) for customized features, flight alerts, and more!